Time;durP1;ratioP1;P1;durP2;ratioP2;P2;SDS_P1;SDS_P2;PMS_P1;PMS_P2;Temp;Humidity;BMP_temperature;BMP_pressure;BME280_temperature;BME280_humidity;BME280_pressure;Samples;Min_cycle;Max_cycle;Signal;HPM_P1;HPM_P2
2023/04/16 00:01:18;;;;;;;8.38;3.90;;;;;;;;;;5134494;28;20358;-71
2023/04/16 00:04:04;;;;;;;6.47;3.78;;;;;;;;;;5133671;28;20023;-70
2023/04/16 00:06:49;;;;;;;11.73;3.97;;;;;;;;;;5119818;28;20057;-71
2023/04/16 00:09:35;;;;;;;8.48;3.80;;;;;;;;;;5137554;27;20050;-72
2023/04/16 00:12:20;;;;;;;7.72;3.83;;;;;;;;;;5124654;27;20027;-71
2023/04/16 00:15:06;;;;;;;6.95;3.75;;;;;;;;;;5137724;27;20023;-70
2023/04/16 00:17:52;;;;;;;10.88;3.78;;;;;;;;;;5122975;27;20050;-71
2023/04/16 00:20:37;;;;;;;9.68;4.10;;;;;;;;;;5138114;27;20019;-70
2023/04/16 00:23:24;;;;;;;10.23;4.13;;;;;;;;;;5137708;27;20046;-69
2023/04/16 00:26:10;;;;;;;10.10;4.32;;;;;;;;;;5138571;27;20494;-70
2023/04/16 00:28:55;;;;;;;7.43;3.90;;;;;;;;;;5125385;27;20030;-70
2023/04/16 00:31:41;;;;;;;10.48;4.20;;;;;;;;;;5123446;27;20084;-70
2023/04/16 00:34:26;;;;;;;10.18;4.10;;;;;;;;;;5124957;27;20019;-70
2023/04/16 00:37:12;;;;;;;12.57;4.60;;;;;;;;;;5123947;27;20080;-71
2023/04/16 00:39:57;;;;;;;7.20;4.07;;;;;;;;;;5123688;27;20027;-71
2023/04/16 00:42:44;;;;;;;11.15;3.72;;;;;;;;;;5124266;27;20019;-71
2023/04/16 00:45:30;;;;;;;7.88;3.95;;;;;;;;;;5138260;27;20363;-71
2023/04/16 00:48:15;;;;;;;7.53;4.00;;;;;;;;;;5137588;27;20358;-71
2023/04/16 00:51:03;;;;;;;10.00;4.30;;;;;;;;;;5136694;27;20102;-71
2023/04/16 00:53:49;;;;;;;9.55;4.10;;;;;;;;;;5137562;27;20023;-71
2023/04/16 00:56:35;;;;;;;6.43;4.05;;;;;;;;;;5124270;27;20019;-71
2023/04/16 00:59:21;;;;;;;11.13;4.43;;;;;;;;;;5137892;27;20506;-71
2023/04/16 01:02:06;;;;;;;10.45;3.83;;;;;;;;;;5136573;27;20027;-70
2023/04/16 01:04:52;;;;;;;7.45;4.22;;;;;;;;;;5124534;27;20030;-70
2023/04/16 01:07:38;;;;;;;9.32;4.15;;;;;;;;;;5136634;27;20046;-70
2023/04/16 01:10:24;;;;;;;8.50;4.00;;;;;;;;;;5123666;27;20047;-70
2023/04/16 01:13:10;;;;;;;7.20;4.60;;;;;;;;;;5138072;27;20027;-71
2023/04/16 01:15:56;;;;;;;8.07;4.28;;;;;;;;;;5137241;27;20069;-71
2023/04/16 01:18:41;;;;;;;7.63;4.32;;;;;;;;;;5136148;27;20023;-71
2023/04/16 01:21:27;;;;;;;8.18;4.45;;;;;;;;;;5121986;27;20035;-71
2023/04/16 01:24:12;;;;;;;7.47;3.95;;;;;;;;;;5136217;27;20116;-71
2023/04/16 01:26:58;;;;;;;8.43;4.10;;;;;;;;;;5124806;27;20023;-70
2023/04/16 01:29:44;;;;;;;10.63;4.43;;;;;;;;;;5121823;27;20065;-70
2023/04/16 01:32:30;;;;;;;8.98;4.28;;;;;;;;;;5136076;27;20019;-70
2023/04/16 01:35:19;;;;;;;7.10;4.15;;;;;;;;;;5121777;27;20023;-70
2023/04/16 01:38:05;;;;;;;6.53;4.05;;;;;;;;;;5137994;27;20375;-70
2023/04/16 01:40:54;;;;;;;9.57;4.00;;;;;;;;;;5139226;27;20055;-71
2023/04/16 01:43:41;;;;;;;6.55;4.10;;;;;;;;;;5121430;27;20011;-70
2023/04/16 01:46:28;;;;;;;6.05;4.15;;;;;;;;;;5123614;27;20023;-71
2023/04/16 01:49:14;;;;;;;7.80;4.18;;;;;;;;;;5137454;27;20090;-71
2023/04/16 01:52:00;;;;;;;9.07;4.40;;;;;;;;;;5136535;27;20027;-71
2023/04/16 01:54:45;;;;;;;9.45;4.28;;;;;;;;;;5136126;27;20121;-71
2023/04/16 01:57:31;;;;;;;8.93;4.43;;;;;;;;;;5122986;27;20029;-71
2023/04/16 02:00:16;;;;;;;8.85;4.25;;;;;;;;;;5135300;27;20023;-71
2023/04/16 02:03:02;;;;;;;10.25;4.68;;;;;;;;;;5136435;27;20332;-71
2023/04/16 02:05:48;;;;;;;11.02;4.75;;;;;;;;;;5136308;27;20015;-71
2023/04/16 02:08:33;;;;;;;10.32;4.45;;;;;;;;;;5122362;27;20108;-71
2023/04/16 02:11:19;;;;;;;9.35;5.00;;;;;;;;;;5134985;27;20031;-71
2023/04/16 02:14:05;;;;;;;10.15;5.20;;;;;;;;;;5135329;27;20040;-70
2023/04/16 02:16:50;;;;;;;8.65;5.05;;;;;;;;;;5135812;27;20011;-71
2023/04/16 02:19:36;;;;;;;13.05;5.35;;;;;;;;;;5135773;27;20408;-70
2023/04/16 02:22:22;;;;;;;9.70;5.35;;;;;;;;;;5135850;27;20016;-71
2023/04/16 02:25:07;;;;;;;10.35;5.00;;;;;;;;;;5135298;27;20083;-71
2023/04/16 02:27:53;;;;;;;10.48;4.97;;;;;;;;;;5134786;27;20019;-70
2023/04/16 02:30:39;;;;;;;12.60;5.88;;;;;;;;;;5135468;27;20015;-70
2023/04/16 02:33:25;;;;;;;11.13;5.38;;;;;;;;;;5134982;27;20415;-70
2023/04/16 02:36:11;;;;;;;10.20;5.40;;;;;;;;;;5121806;27;20027;-71
2023/04/16 02:38:57;;;;;;;13.68;5.25;;;;;;;;;;5120809;27;20027;-71
2023/04/16 02:41:43;;;;;;;11.20;5.20;;;;;;;;;;5134687;27;20043;-70
2023/04/16 02:44:28;;;;;;;14.50;5.80;;;;;;;;;;5134914;27;20359;-71
2023/04/16 02:47:14;;;;;;;12.50;5.72;;;;;;;;;;5134553;27;20046;-70
2023/04/16 02:50:00;;;;;;;12.00;5.80;;;;;;;;;;5135494;27;20038;-70
2023/04/16 02:52:45;;;;;;;9.85;5.20;;;;;;;;;;5134431;27;20152;-71
2023/04/16 02:55:31;;;;;;;8.32;5.10;;;;;;;;;;5134576;27;20023;-70
2023/04/16 02:58:16;;;;;;;9.65;5.38;;;;;;;;;;5121654;27;20023;-70
2023/04/16 03:01:02;;;;;;;11.10;5.38;;;;;;;;;;5119777;27;20023;-72
2023/04/16 03:03:48;;;;;;;10.50;5.85;;;;;;;;;;5134875;27;20007;-70
2023/04/16 03:06:33;;;;;;;9.73;5.95;;;;;;;;;;5122167;27;20339;-70
2023/04/16 03:09:19;;;;;;;11.48;5.88;;;;;;;;;;5122129;27;20039;-70
2023/04/16 03:12:05;;;;;;;14.52;5.88;;;;;;;;;;5135775;27;20027;-69
2023/04/16 03:14:51;;;;;;;15.50;6.07;;;;;;;;;;5121086;28;20023;-70
2023/04/16 03:17:37;;;;;;;12.40;5.40;;;;;;;;;;5135551;27;20447;-70
2023/04/16 03:20:22;;;;;;;9.77;5.55;;;;;;;;;;5134821;27;20118;-71
2023/04/16 03:23:08;;;;;;;9.63;5.00;;;;;;;;;;5134703;28;20031;-71
2023/04/16 03:25:53;;;;;;;13.95;5.53;;;;;;;;;;5121690;28;20030;-70
2023/04/16 03:28:39;;;;;;;14.43;5.93;;;;;;;;;;5120846;28;20098;-70
2023/04/16 03:31:25;;;;;;;12.88;5.55;;;;;;;;;;5121567;28;20015;-70
2023/04/16 03:34:10;;;;;;;10.90;5.53;;;;;;;;;;5121322;28;20102;-70
2023/04/16 03:36:56;;;;;;;14.15;6.03;;;;;;;;;;5120255;28;20096;-70
2023/04/16 03:39:42;;;;;;;12.20;6.10;;;;;;;;;;5134050;28;20019;-70
2023/04/16 03:42:27;;;;;;;19.02;6.80;;;;;;;;;;5134895;27;20025;-71
2023/04/16 03:45:14;;;;;;;13.13;5.82;;;;;;;;;;5138438;27;20454;-70
2023/04/16 03:47:59;;;;;;;11.75;5.82;;;;;;;;;;5138802;27;20390;-69
2023/04/16 03:50:46;;;;;;;11.63;6.70;;;;;;;;;;5126248;27;20084;-70
2023/04/16 03:53:32;;;;;;;14.20;6.30;;;;;;;;;;5143589;27;20459;-71
2023/04/16 03:56:17;;;;;;;9.98;6.38;;;;;;;;;;5140314;27;20056;-71
2023/04/16 03:59:03;;;;;;;13.05;6.38;;;;;;;;;;5150187;27;20439;-70
2023/04/16 04:01:48;;;;;;;16.50;7.20;;;;;;;;;;5140111;27;20031;-71
2023/04/16 04:04:34;;;;;;;12.23;7.45;;;;;;;;;;5138689;27;20051;-72
2023/04/16 04:07:20;;;;;;;16.65;9.80;;;;;;;;;;5138923;27;20047;-70
2023/04/16 04:10:05;;;;;;;15.68;10.20;;;;;;;;;;5125977;27;20019;-71
2023/04/16 04:12:51;;;;;;;22.27;10.77;;;;;;;;;;5125973;27;20023;-72
2023/04/16 04:15:37;;;;;;;20.42;10.50;;;;;;;;;;5127984;27;20031;-70
2023/04/16 04:18:22;;;;;;;14.00;8.18;;;;;;;;;;5139842;27;20155;-71
2023/04/16 04:21:08;;;;;;;10.77;6.95;;;;;;;;;;5125504;27;20031;-71
2023/04/16 04:23:54;;;;;;;13.55;7.15;;;;;;;;;;5124421;27;20016;-72
2023/04/16 04:26:39;;;;;;;15.75;6.80;;;;;;;;;;5138525;27;20445;-70
2023/04/16 04:29:25;;;;;;;12.77;6.07;;;;;;;;;;5125149;27;20055;-70
2023/04/16 04:32:10;;;;;;;13.25;6.32;;;;;;;;;;5137821;27;20034;-70
2023/04/16 04:34:56;;;;;;;16.75;7.15;;;;;;;;;;5124591;27;20488;-70
2023/04/16 04:37:42;;;;;;;10.55;6.65;;;;;;;;;;5123547;27;20129;-71
2023/04/16 04:40:27;;;;;;;12.93;6.30;;;;;;;;;;5137893;27;20343;-71
2023/04/16 04:43:13;;;;;;;13.70;6.28;;;;;;;;;;5138213;27;20023;-72
2023/04/16 04:45:59;;;;;;;17.38;7.70;;;;;;;;;;5139203;27;20011;-70
2023/04/16 04:48:44;;;;;;;18.73;8.40;;;;;;;;;;5138898;27;20427;-71
2023/04/16 04:51:30;;;;;;;14.68;7.05;;;;;;;;;;5138198;27;20019;-70
2023/04/16 04:54:16;;;;;;;11.93;6.50;;;;;;;;;;5137228;27;20045;-71
2023/04/16 04:57:01;;;;;;;14.85;7.22;;;;;;;;;;5124684;27;20019;-70
2023/04/16 04:59:47;;;;;;;14.80;8.05;;;;;;;;;;5138565;27;20431;-69
2023/04/16 05:02:33;;;;;;;15.13;6.95;;;;;;;;;;5137404;27;20030;-71
2023/04/16 05:05:18;;;;;;;11.73;7.38;;;;;;;;;;5124182;27;20023;-71
2023/04/16 05:08:04;;;;;;;11.88;8.05;;;;;;;;;;5137357;27;20131;-70
2023/04/16 05:10:49;;;;;;;16.80;8.07;;;;;;;;;;5124536;27;20038;-71
2023/04/16 05:13:35;;;;;;;13.30;7.88;;;;;;;;;;5122641;27;20034;-70
2023/04/16 05:16:21;;;;;;;12.68;6.80;;;;;;;;;;5138215;27;20466;-70
2023/04/16 05:19:06;;;;;;;23.55;8.85;;;;;;;;;;5137983;27;20087;-71
2023/04/16 05:21:53;;;;;;;14.57;7.07;;;;;;;;;;5123618;27;20019;-70
2023/04/16 05:24:38;;;;;;;15.07;7.55;;;;;;;;;;5137105;27;20019;-72
2023/04/16 05:27:24;;;;;;;17.55;9.50;;;;;;;;;;5124771;27;20090;-71
2023/04/16 05:30:09;;;;;;;29.02;11.10;;;;;;;;;;5136387;27;20400;-71
2023/04/16 05:32:55;;;;;;;23.42;9.95;;;;;;;;;;5124016;27;20015;-71
2023/04/16 05:35:41;;;;;;;14.93;7.03;;;;;;;;;;5123207;27;20504;-70
2023/04/16 05:38:26;;;;;;;15.13;6.05;;;;;;;;;;5122059;27;20477;-71
2023/04/16 05:41:12;;;;;;;14.25;6.10;;;;;;;;;;5123643;27;20050;-72
2023/04/16 05:43:57;;;;;;;16.73;6.05;;;;;;;;;;5136418;27;20083;-71
2023/04/16 05:46:43;;;;;;;14.80;6.03;;;;;;;;;;5136111;27;20532;-71
2023/04/16 05:49:28;;;;;;;20.27;5.90;;;;;;;;;;5123021;27;20023;-70
2023/04/16 05:52:14;;;;;;;11.40;5.93;;;;;;;;;;5136185;27;20029;-71
2023/04/16 05:55:00;;;;;;;15.35;6.47;;;;;;;;;;5136069;27;20115;-71
2023/04/16 05:57:45;;;;;;;15.95;5.88;;;;;;;;;;5136766;27;20027;-71
2023/04/16 06:00:31;;;;;;;13.35;5.10;;;;;;;;;;5136181;27;20019;-71
2023/04/16 06:03:17;;;;;;;13.75;5.35;;;;;;;;;;5136263;27;20103;-71
2023/04/16 06:06:03;;;;;;;12.98;5.55;;;;;;;;;;5135724;27;20007;-70
2023/04/16 06:08:48;;;;;;;16.77;5.90;;;;;;;;;;5135865;27;20082;-71
2023/04/16 06:11:34;;;;;;;13.93;5.72;;;;;;;;;;5136005;27;20019;-71
2023/04/16 06:14:19;;;;;;;14.05;5.82;;;;;;;;;;5136312;27;20029;-72
2023/04/16 06:17:05;;;;;;;15.50;6.38;;;;;;;;;;5137216;27;20148;-71
2023/04/16 06:19:50;;;;;;;12.80;6.03;;;;;;;;;;5122067;27;20011;-71
2023/04/16 06:22:36;;;;;;;12.68;5.65;;;;;;;;;;5135684;27;20075;-71
2023/04/16 06:25:22;;;;;;;15.23;5.78;;;;;;;;;;5135612;27;20015;-71
2023/04/16 06:28:07;;;;;;;9.82;5.90;;;;;;;;;;5120846;27;20488;-70
2023/04/16 06:30:53;;;;;;;11.55;5.85;;;;;;;;;;5123635;27;20110;-71
2023/04/16 06:33:38;;;;;;;12.93;5.70;;;;;;;;;;5134972;27;20409;-71
2023/04/16 06:36:26;;;;;;;11.82;5.53;;;;;;;;;;5135681;27;20038;-72
2023/04/16 06:39:11;;;;;;;18.02;6.05;;;;;;;;;;5137042;27;20023;-71
2023/04/16 06:41:57;;;;;;;13.23;5.38;;;;;;;;;;5135452;27;20034;-71
2023/04/16 06:44:43;;;;;;;13.98;6.10;;;;;;;;;;5122455;27;20011;-71
2023/04/16 06:47:28;;;;;;;18.10;6.43;;;;;;;;;;5122485;27;20011;-72
2023/04/16 06:50:14;;;;;;;15.30;5.90;;;;;;;;;;5122079;27;20043;-71
2023/04/16 06:52:59;;;;;;;17.10;5.80;;;;;;;;;;5134859;27;20027;-71
2023/04/16 06:55:45;;;;;;;16.42;6.18;;;;;;;;;;5135007;27;20083;-72
2023/04/16 06:58:31;;;;;;;14.82;6.20;;;;;;;;;;5120333;27;20026;-74
2023/04/16 07:01:17;;;;;;;16.48;6.43;;;;;;;;;;5135667;27;20023;-74
2023/04/16 07:04:03;;;;;;;16.52;6.50;;;;;;;;;;5135616;27;20019;-71
2023/04/16 07:06:48;;;;;;;13.40;6.47;;;;;;;;;;5134322;27;20443;-73
2023/04/16 07:09:34;;;;;;;15.25;5.85;;;;;;;;;;5135454;27;20027;-71
2023/04/16 07:12:19;;;;;;;15.85;6.35;;;;;;;;;;5134730;27;20026;-71
2023/04/16 07:15:06;;;;;;;12.65;6.45;;;;;;;;;;5135963;27;20034;-71
2023/04/16 07:17:51;;;;;;;17.48;6.85;;;;;;;;;;5134341;27;20066;-72
2023/04/16 07:20:37;;;;;;;14.50;5.90;;;;;;;;;;5134839;27;20030;-72
2023/04/16 07:23:22;;;;;;;16.80;5.63;;;;;;;;;;5135339;28;20079;-72
2023/04/16 07:26:08;;;;;;;14.15;5.82;;;;;;;;;;5139135;28;20015;-71
2023/04/16 07:28:54;;;;;;;15.98;6.10;;;;;;;;;;5122068;28;20110;-71
2023/04/16 07:31:39;;;;;;;16.30;6.00;;;;;;;;;;5131747;28;20118;-72
2023/04/16 07:34:25;;;;;;;22.05;5.85;;;;;;;;;;5125648;28;20033;-71
2023/04/16 07:37:10;;;;;;;26.08;7.00;;;;;;;;;;5125809;28;20026;-72
2023/04/16 07:39:56;;;;;;;20.75;6.28;;;;;;;;;;5134081;28;20038;-73
2023/04/16 07:42:42;;;;;;;14.70;6.10;;;;;;;;;;5120280;28;20025;-72
2023/04/16 07:45:27;;;;;;;81.65;9.70;;;;;;;;;;5121652;28;20011;-72
2023/04/16 07:48:13;;;;;;;15.48;5.85;;;;;;;;;;5134522;28;20030;-72
2023/04/16 07:50:59;;;;;;;15.57;6.00;;;;;;;;;;5136807;28;20030;-71
2023/04/16 07:53:44;;;;;;;17.13;6.07;;;;;;;;;;5134120;28;20041;-72
2023/04/16 07:56:30;;;;;;;15.88;6.03;;;;;;;;;;5134255;28;20023;-72
2023/04/16 07:59:16;;;;;;;13.73;5.65;;;;;;;;;;5133899;28;20164;-72
2023/04/16 08:02:01;;;;;;;18.95;5.80;;;;;;;;;;5133827;28;20011;-71
2023/04/16 08:04:47;;;;;;;19.13;5.50;;;;;;;;;;5121447;28;20082;-71
2023/04/16 08:07:32;;;;;;;30.58;6.70;;;;;;;;;;5133849;28;20083;-71
2023/04/16 08:10:18;;;;;;;16.27;6.22;;;;;;;;;;5134880;28;20055;-72
2023/04/16 08:13:03;;;;;;;17.63;5.75;;;;;;;;;;5133903;28;20115;-72
2023/04/16 08:15:49;;;;;;;11.77;5.43;;;;;;;;;;5135075;28;20130;-72
2023/04/16 08:18:36;;;;;;;16.42;5.28;;;;;;;;;;5135416;28;20027;-71
2023/04/16 08:21:21;;;;;;;16.05;5.85;;;;;;;;;;5135380;28;20030;-72
2023/04/16 08:24:07;;;;;;;13.55;5.50;;;;;;;;;;5134226;28;20449;-71
2023/04/16 08:26:53;;;;;;;14.13;5.80;;;;;;;;;;5121377;28;20035;-70
2023/04/16 08:29:38;;;;;;;15.75;5.72;;;;;;;;;;5134583;27;20420;-71
2023/04/16 08:32:25;;;;;;;18.05;5.68;;;;;;;;;;5138826;27;20495;-72
2023/04/16 08:35:10;;;;;;;16.48;6.43;;;;;;;;;;5138746;27;20045;-71
2023/04/16 08:37:57;;;;;;;13.68;4.65;;;;;;;;;;5139110;27;20054;-73
2023/04/16 08:40:44;;;;;;;12.75;4.88;;;;;;;;;;5137540;27;20031;-72
2023/04/16 08:43:33;;;;;;;15.73;5.63;;;;;;;;;;5137827;27;20435;-72
2023/04/16 08:46:21;;;;;;;14.32;5.63;;;;;;;;;;5137754;27;20019;-72
2023/04/16 08:49:07;;;;;;;13.55;4.82;;;;;;;;;;5139213;27;20066;-71
2023/04/16 08:51:53;;;;;;;16.52;5.50;;;;;;;;;;5139990;27;20084;-72
2023/04/16 08:54:46;;;;;;;14.00;4.70;;;;;;;;;;5124517;27;20016;-71
2023/04/16 08:57:37;;;;;;;17.13;6.15;;;;;;;;;;5137692;27;20019;-71
2023/04/16 09:00:23;;;;;;;18.20;5.93;;;;;;;;;;5137364;27;20030;-71
2023/04/16 09:03:09;;;;;;;13.63;4.65;;;;;;;;;;5137312;27;20015;-71
2023/04/16 09:05:56;;;;;;;23.15;8.25;;;;;;;;;;5138264;27;20443;-71
2023/04/16 09:08:45;;;;;;;17.88;6.65;;;;;;;;;;5137176;27;20423;-72
2023/04/16 09:11:31;;;;;;;13.57;5.60;;;;;;;;;;5123389;27;20419;-72
2023/04/16 09:14:16;;;;;;;22.33;5.88;;;;;;;;;;5136354;27;20489;-71
2023/04/16 09:17:03;;;;;;;9.00;4.45;;;;;;;;;;5137629;27;20500;-71
2023/04/16 09:19:48;;;;;;;14.18;4.53;;;;;;;;;;5137788;27;20050;-72
2023/04/16 09:22:34;;;;;;;10.63;4.60;;;;;;;;;;5136293;27;20023;-71
2023/04/16 09:25:21;;;;;;;18.67;6.00;;;;;;;;;;5137417;27;20015;-70
2023/04/16 09:28:07;;;;;;;13.52;4.85;;;;;;;;;;5137618;27;20058;-71
2023/04/16 09:31:06;;;;;;;13.88;4.50;;;;;;;;;;5122394;27;20054;-72
2023/04/16 09:34:10;;;;;;;9.75;4.63;;;;;;;;;;5120656;27;20042;-72
2023/04/16 09:37:12;;;;;;;11.25;4.25;;;;;;;;;;5121554;27;20443;-71
2023/04/16 09:39:59;;;;;;;13.07;4.72;;;;;;;;;;5121179;27;20050;-72
2023/04/16 09:42:44;;;;;;;13.48;4.80;;;;;;;;;;5136133;27;20030;-72
2023/04/16 09:45:32;;;;;;;11.07;4.03;;;;;;;;;;5123322;27;20022;-71
2023/04/16 09:48:36;;;;;;;15.32;4.80;;;;;;;;;;5136980;27;20438;-72
2023/04/16 09:51:21;;;;;;;11.95;4.75;;;;;;;;;;5137593;27;20031;-72
2023/04/16 09:54:07;;;;;;;14.88;4.53;;;;;;;;;;5122425;27;20061;-72
2023/04/16 09:56:55;;;;;;;15.30;4.88;;;;;;;;;;5120582;27;20042;-72
2023/04/16 09:59:40;;;;;;;13.82;4.03;;;;;;;;;;5137242;27;20016;-71
2023/04/16 10:02:27;;;;;;;19.25;4.53;;;;;;;;;;5134788;27;20016;-71
2023/04/16 10:05:15;;;;;;;10.43;3.70;;;;;;;;;;5136106;27;20026;-71
2023/04/16 10:08:01;;;;;;;10.77;4.00;;;;;;;;;;5136334;27;20051;-71
2023/04/16 10:10:47;;;;;;;12.02;4.35;;;;;;;;;;5136192;27;20091;-71
2023/04/16 10:13:32;;;;;;;8.55;4.07;;;;;;;;;;5122444;27;20025;-72
2023/04/16 10:16:18;;;;;;;14.48;4.55;;;;;;;;;;5136166;27;20320;-72
2023/04/16 10:19:03;;;;;;;12.93;4.40;;;;;;;;;;5135215;27;20079;-72
2023/04/16 10:21:49;;;;;;;12.63;4.35;;;;;;;;;;5136089;27;20366;-70
2023/04/16 10:24:35;;;;;;;9.73;3.80;;;;;;;;;;5135127;27;20431;-72
2023/04/16 10:27:20;;;;;;;10.57;4.15;;;;;;;;;;5135426;27;20336;-72
2023/04/16 10:30:06;;;;;;;13.63;4.63;;;;;;;;;;5135888;27;20033;-72
2023/04/16 10:32:52;;;;;;;10.98;4.30;;;;;;;;;;5135315;27;20366;-72
2023/04/16 10:35:39;;;;;;;15.38;4.15;;;;;;;;;;5135225;27;20019;-71
2023/04/16 10:38:25;;;;;;;9.63;4.03;;;;;;;;;;5135794;27;20351;-72
2023/04/16 10:41:11;;;;;;;12.07;4.40;;;;;;;;;;5135978;27;20423;-72
2023/04/16 10:44:04;;;;;;;14.73;4.07;;;;;;;;;;5134600;27;20051;-71
2023/04/16 10:46:50;;;;;;;13.95;4.55;;;;;;;;;;5135201;27;20466;-72
2023/04/16 10:49:35;;;;;;;9.65;4.45;;;;;;;;;;5122439;27;20019;-72
2023/04/16 10:52:23;;;;;;;14.68;4.78;;;;;;;;;;5134920;27;20031;-72
2023/04/16 10:55:15;;;;;;;10.23;4.60;;;;;;;;;;5135056;27;20023;-72
2023/04/16 10:58:00;;;;;;;13.23;5.35;;;;;;;;;;5135392;27;20102;-73
2023/04/16 11:00:50;;;;;;;12.77;5.00;;;;;;;;;;5122322;27;20523;-73
2023/04/16 11:03:35;;;;;;;17.00;5.68;;;;;;;;;;5121227;27;20023;-73
2023/04/16 11:06:25;;;;;;;15.05;6.07;;;;;;;;;;5122292;27;20007;-72
2023/04/16 11:09:31;;;;;;;10.75;5.68;;;;;;;;;;5134820;27;20046;-72
2023/04/16 11:12:19;;;;;;;10.30;5.18;;;;;;;;;;5121516;27;20023;-72
2023/04/16 11:15:09;;;;;;;15.18;5.53;;;;;;;;;;5134454;27;20363;-72
2023/04/16 11:17:55;;;;;;;10.05;4.75;;;;;;;;;;5135000;27;20018;-72
2023/04/16 11:20:40;;;;;;;14.35;5.43;;;;;;;;;;5134806;27;20502;-72
2023/04/16 11:23:26;;;;;;;9.70;4.30;;;;;;;;;;5134178;27;20046;-71
2023/04/16 11:26:27;;;;;;;9.20;4.68;;;;;;;;;;5119671;28;20084;-71
2023/04/16 11:29:14;;;;;;;13.32;4.32;;;;;;;;;;5134134;28;20034;-72
2023/04/16 11:32:00;;;;;;;13.48;4.47;;;;;;;;;;5135420;28;20023;-73
2023/04/16 11:34:45;;;;;;;15.57;4.85;;;;;;;;;;5121703;28;20159;-72
2023/04/16 11:37:35;;;;;;;11.10;4.20;;;;;;;;;;5134083;28;20363;-72
2023/04/16 11:40:21;;;;;;;11.07;4.72;;;;;;;;;;5134689;28;20028;-72
2023/04/16 11:43:14;;;;;;;12.95;4.35;;;;;;;;;;5121035;28;20046;-72
2023/04/16 11:46:01;;;;;;;15.65;4.97;;;;;;;;;;5119012;28;20097;-71
2023/04/16 11:48:51;;;;;;;14.32;4.40;;;;;;;;;;5134863;28;20465;-73
2023/04/16 11:51:46;;;;;;;8.70;4.07;;;;;;;;;;5134827;28;20527;-72
2023/04/16 11:54:33;;;;;;;11.00;4.28;;;;;;;;;;5118912;28;20058;-71
2023/04/16 11:57:29;;;;;;;8.45;3.58;;;;;;;;;;5120905;28;20511;-72
2023/04/16 12:00:15;;;;;;;10.15;3.85;;;;;;;;;;5134578;28;20019;-73
2023/04/16 12:03:01;;;;;;;8.98;3.72;;;;;;;;;;5134788;28;20034;-73
2023/04/16 12:05:47;;;;;;;5.28;3.70;;;;;;;;;;5138096;27;20397;-72
2023/04/16 12:08:32;;;;;;;8.10;3.80;;;;;;;;;;5138885;27;20129;-73
2023/04/16 12:11:18;;;;;;;11.07;3.30;;;;;;;;;;5125958;27;20106;-72
2023/04/16 12:14:07;;;;;;;6.85;3.10;;;;;;;;;;5137382;27;20027;-73
2023/04/16 12:16:53;;;;;;;5.75;3.20;;;;;;;;;;5138542;27;20034;-73
2023/04/16 12:19:47;;;;;;;9.02;3.38;;;;;;;;;;5124581;27;20033;-72
2023/04/16 12:22:33;;;;;;;7.28;3.13;;;;;;;;;;5123844;27;20073;-72
2023/04/16 12:25:19;;;;;;;7.07;2.90;;;;;;;;;;5124464;27;20065;-72
2023/04/16 12:28:05;;;;;;;5.97;3.22;;;;;;;;;;5138015;27;20333;-72
2023/04/16 12:30:50;;;;;;;6.05;3.22;;;;;;;;;;5138050;27;20029;-72
2023/04/16 12:33:36;;;;;;;7.15;3.15;;;;;;;;;;5125496;27;20031;-72
2023/04/16 12:36:23;;;;;;;8.50;3.10;;;;;;;;;;5123713;27;20011;-73
2023/04/16 12:39:09;;;;;;;10.05;3.45;;;;;;;;;;5137509;27;20023;-73
2023/04/16 12:41:55;;;;;;;5.20;2.83;;;;;;;;;;5139640;27;20075;-72
2023/04/16 12:44:43;;;;;;;7.82;2.92;;;;;;;;;;5145333;27;20015;-72
2023/04/16 12:47:29;;;;;;;6.47;3.20;;;;;;;;;;5140563;27;20106;-73
2023/04/16 12:50:15;;;;;;;7.53;2.97;;;;;;;;;;5145058;27;20019;-72
2023/04/16 12:53:01;;;;;;;8.02;3.15;;;;;;;;;;5138889;27;20015;-71
2023/04/16 12:55:46;;;;;;;5.97;2.95;;;;;;;;;;5145876;27;20058;-72
2023/04/16 12:58:33;;;;;;;9.85;3.75;;;;;;;;;;5138343;27;20016;-72
2023/04/16 13:01:18;;;;;;;6.80;2.90;;;;;;;;;;5136612;27;20023;-72
2023/04/16 13:04:04;;;;;;;9.15;3.22;;;;;;;;;;5137288;27;20022;-72
2023/04/16 13:06:50;;;;;;;9.32;3.10;;;;;;;;;;5136417;27;20061;-72
2023/04/16 13:09:36;;;;;;;6.22;3.08;;;;;;;;;;5136477;27;20031;-72
2023/04/16 13:12:21;;;;;;;7.53;2.72;;;;;;;;;;5137017;27;20102;-72
2023/04/16 13:15:07;;;;;;;4.82;2.28;;;;;;;;;;5136445;27;20015;-71
2023/04/16 13:17:53;;;;;;;4.22;1.98;;;;;;;;;;5136812;27;20508;-72
2023/04/16 13:20:38;;;;;;;4.85;2.00;;;;;;;;;;5136355;27;20027;-72
2023/04/16 13:23:24;;;;;;;5.57;2.40;;;;;;;;;;5136192;27;20057;-72
2023/04/16 13:26:11;;;;;;;4.65;2.10;;;;;;;;;;5123863;27;20030;-72
2023/04/16 13:28:57;;;;;;;11.30;4.13;;;;;;;;;;5137106;27;20396;-72
2023/04/16 13:31:43;;;;;;;12.43;4.10;;;;;;;;;;5139692;27;20015;-71
2023/04/16 13:34:28;;;;;;;12.98;4.65;;;;;;;;;;5136754;27;20021;-73
2023/04/16 13:37:14;;;;;;;18.80;5.32;;;;;;;;;;5123926;27;20316;-71
2023/04/16 13:40:00;;;;;;;15.00;4.60;;;;;;;;;;5126752;27;20030;-71
2023/04/16 13:42:45;;;;;;;5.95;3.60;;;;;;;;;;5124423;27;20046;-73
2023/04/16 13:45:31;;;;;;;9.30;3.92;;;;;;;;;;5136972;27;20011;-72
2023/04/16 13:48:16;;;;;;;11.43;4.22;;;;;;;;;;5136429;27;20083;-72
2023/04/16 13:51:02;;;;;;;12.55;4.93;;;;;;;;;;5136991;27;20026;-73
2023/04/16 13:53:48;;;;;;;14.25;4.85;;;;;;;;;;5137029;27;20086;-72
2023/04/16 13:56:33;;;;;;;13.32;4.68;;;;;;;;;;5135428;27;20025;-72
2023/04/16 13:59:19;;;;;;;15.02;4.57;;;;;;;;;;5135711;27;20084;-72
2023/04/16 14:02:05;;;;;;;7.60;4.03;;;;;;;;;;5137250;27;20019;-73
2023/04/16 14:04:50;;;;;;;12.45;4.30;;;;;;;;;;5136633;27;20027;-72
2023/04/16 14:07:36;;;;;;;12.93;4.55;;;;;;;;;;5136137;27;20103;-71
2023/04/16 14:10:21;;;;;;;31.08;19.30;;;;;;;;;;5121513;27;20446;-72
2023/04/16 14:13:07;;;;;;;10.27;5.18;;;;;;;;;;5136441;27;20034;-72
2023/04/16 14:15:53;;;;;;;5.45;3.40;;;;;;;;;;5121199;27;20034;-72
2023/04/16 14:18:41;;;;;;;11.70;4.40;;;;;;;;;;5122927;27;20058;-72
2023/04/16 14:21:26;;;;;;;8.35;4.45;;;;;;;;;;5135616;27;20176;-72
2023/04/16 14:24:12;;;;;;;9.68;4.25;;;;;;;;;;5135496;27;20075;-73
2023/04/16 14:26:58;;;;;;;6.05;4.03;;;;;;;;;;5135184;27;20308;-72
2023/04/16 14:29:45;;;;;;;8.63;4.80;;;;;;;;;;5121574;27;20443;-72
2023/04/16 14:32:30;;;;;;;10.80;4.68;;;;;;;;;;5135400;27;20027;-72
2023/04/16 14:35:16;;;;;;;8.02;4.70;;;;;;;;;;5122635;27;20023;-72
2023/04/16 14:38:02;;;;;;;7.65;4.97;;;;;;;;;;5135912;27;20100;-72
2023/04/16 14:40:48;;;;;;;12.70;5.05;;;;;;;;;;5136465;27;20172;-71
2023/04/16 14:43:34;;;;;;;13.23;5.57;;;;;;;;;;5136878;27;20015;-71
2023/04/16 14:46:20;;;;;;;9.43;4.57;;;;;;;;;;5121284;27;20011;-73
2023/04/16 14:49:05;;;;;;;11.25;4.60;;;;;;;;;;5134728;27;20019;-72
2023/04/16 14:51:51;;;;;;;12.88;5.10;;;;;;;;;;5135399;27;20019;-73
2023/04/16 14:54:36;;;;;;;28.42;5.53;;;;;;;;;;5121901;27;20336;-73
2023/04/16 14:57:22;;;;;;;7.47;4.47;;;;;;;;;;5134762;27;20466;-73
2023/04/16 15:00:09;;;;;;;8.98;4.80;;;;;;;;;;5122169;27;20453;-73
2023/04/16 15:02:55;;;;;;;10.88;4.63;;;;;;;;;;5120062;27;20047;-73
2023/04/16 15:05:40;;;;;;;14.20;4.57;;;;;;;;;;5122362;27;20106;-72
2023/04/16 15:08:26;;;;;;;16.15;4.97;;;;;;;;;;5121494;27;20126;-71
2023/04/16 15:11:11;;;;;;;12.77;5.05;;;;;;;;;;5134713;27;20116;-72
2023/04/16 15:13:57;;;;;;;15.02;5.13;;;;;;;;;;5122140;27;20027;-71
2023/04/16 15:16:46;;;;;;;9.90;5.05;;;;;;;;;;5135335;27;20026;-72
2023/04/16 15:19:32;;;;;;;11.00;4.90;;;;;;;;;;5135206;27;20027;-73
2023/04/16 15:22:18;;;;;;;9.05;4.63;;;;;;;;;;5134649;27;20026;-72
2023/04/16 15:25:04;;;;;;;11.32;4.47;;;;;;;;;;5135089;27;20007;-73
2023/04/16 15:27:50;;;;;;;11.65;4.97;;;;;;;;;;5135303;28;20079;-72
2023/04/16 15:30:37;;;;;;;11.30;4.85;;;;;;;;;;5135397;28;20467;-72
2023/04/16 15:33:23;;;;;;;11.57;5.20;;;;;;;;;;5134953;28;20023;-73
2023/04/16 15:36:10;;;;;;;9.73;4.75;;;;;;;;;;5135155;28;20027;-71
2023/04/16 15:38:55;;;;;;;9.50;4.40;;;;;;;;;;5135231;27;20042;-72
2023/04/16 15:41:41;;;;;;;10.55;4.57;;;;;;;;;;5139412;27;20354;-72
2023/04/16 15:44:27;;;;;;;7.97;4.70;;;;;;;;;;5138310;27;20359;-72
2023/04/16 15:47:12;;;;;;;11.00;5.05;;;;;;;;;;5138371;27;20019;-73
2023/04/16 15:49:58;;;;;;;6.68;4.30;;;;;;;;;;5139393;27;20027;-71
2023/04/16 15:52:43;;;;;;;10.63;5.00;;;;;;;;;;5138120;27;20413;-71
2023/04/16 15:55:29;;;;;;;10.38;4.65;;;;;;;;;;5137890;27;20019;-72
2023/04/16 15:58:15;;;;;;;13.60;5.15;;;;;;;;;;5125958;27;20142;-72
2023/04/16 16:01:01;;;;;;;5.45;4.43;;;;;;;;;;5124789;27;20023;-72
2023/04/16 16:03:46;;;;;;;7.93;5.07;;;;;;;;;;5138438;27;20118;-72
2023/04/16 16:06:32;;;;;;;10.10;4.85;;;;;;;;;;5138687;27;20015;-72
2023/04/16 16:09:24;;;;;;;8.93;5.53;;;;;;;;;;5138101;27;20043;-71
2023/04/16 16:12:10;;;;;;;15.30;6.60;;;;;;;;;;5138963;27;20023;-72
2023/04/16 16:14:55;;;;;;;15.55;6.43;;;;;;;;;;5138806;27;20027;-71
2023/04/16 16:17:41;;;;;;;17.65;6.93;;;;;;;;;;5125458;27;20434;-70
2023/04/16 16:20:26;;;;;;;17.67;7.18;;;;;;;;;;5138437;27;20450;-71
2023/04/16 16:23:12;;;;;;;16.27;7.30;;;;;;;;;;5138126;27;20034;-72
2023/04/16 16:25:57;;;;;;;16.95;7.00;;;;;;;;;;5126030;27;20087;-72